createdAt,value
2022-10-28T00:03:07.933Z,13.42
2022-10-28T00:08:09.843Z,13.36
2022-10-28T00:13:11.368Z,13.32
2022-10-28T00:18:15.651Z,13.19
2022-10-28T00:23:17.102Z,13.05
2022-10-28T00:28:18.533Z,13.00
2022-10-28T00:33:19.974Z,13.07
2022-10-28T00:38:21.445Z,13.20
2022-10-28T00:43:43.356Z,13.28
2022-10-28T00:48:50.735Z,13.32
2022-10-28T00:53:53.654Z,13.25
2022-10-28T00:58:59.570Z,13.30
2022-10-28T04:36:17.279Z,13.65
2022-10-28T04:41:18.831Z,13.46
2022-10-28T04:46:20.356Z,13.30
2022-10-28T04:51:21.843Z,13.26
2022-10-28T04:56:23.306Z,13.24
2022-10-28T05:01:24.933Z,13.24
2022-10-28T05:06:26.596Z,13.23
2022-10-28T05:11:28.216Z,13.20
2022-10-28T05:16:29.673Z,13.09
2022-10-28T05:21:31.196Z,13.02
2022-10-28T05:26:32.660Z,12.96
2022-10-28T05:31:34.718Z,12.84
2022-10-28T05:36:36.347Z,12.71
2022-10-28T05:41:38.869Z,12.65
2022-10-28T05:46:40.472Z,12.56
2022-10-28T05:51:41.942Z,12.50
2022-10-28T05:56:43.430Z,12.51
2022-10-28T06:01:45.009Z,12.57
2022-10-28T06:06:46.597Z,12.62
2022-10-28T06:11:46.740Z,12.64
2022-10-28T06:16:48.240Z,12.54
2022-10-28T06:21:49.695Z,12.32
2022-10-28T06:26:51.196Z,12.27
2022-10-28T06:31:52.682Z,12.44
2022-10-28T06:36:54.100Z,12.71
2022-10-28T06:41:55.591Z,13.02
2022-10-28T06:46:58.607Z,13.22
2022-10-28T06:52:00.096Z,13.38
2022-10-28T06:57:01.913Z,13.49
2022-10-28T07:02:03.917Z,13.58
2022-10-28T07:07:05.623Z,13.69
2022-10-28T07:12:07.757Z,13.81
2022-10-28T07:17:09.247Z,13.91
2022-10-28T07:22:10.728Z,13.91
2022-10-28T07:27:12.953Z,13.96
2022-10-28T07:32:15.394Z,13.99
2022-10-28T07:37:16.914Z,14.04
2022-10-28T07:42:18.440Z,14.18
2022-10-28T07:47:21.617Z,14.32
2022-10-28T07:52:23.372Z,14.40
2022-10-28T07:57:24.999Z,14.44
2022-10-28T08:02:26.813Z,14.29
2022-10-28T08:07:28.946Z,14.45
2022-10-28T08:12:30.805Z,14.70
2022-10-28T08:17:32.265Z,14.91
2022-10-28T08:22:33.740Z,15.21
2022-10-28T08:27:35.277Z,15.40
2022-10-28T08:32:36.744Z,15.59
2022-10-28T08:37:38.200Z,15.81
2022-10-28T08:42:56.444Z,16.32
2022-10-28T08:47:58.343Z,16.84
2022-10-28T08:53:10.468Z,17.14
2022-10-28T08:58:17.980Z,17.34
2022-10-28T09:03:23.115Z,17.53
2022-10-28T09:08:29.696Z,17.80
2022-10-28T09:13:52.876Z,17.91
2022-10-28T09:18:57.053Z,18.08
2022-10-28T09:24:05.982Z,18.25
2022-10-28T09:29:10.257Z,18.36
2022-10-28T09:34:24.037Z,18.66
2022-10-28T09:39:34.255Z,19.20
2022-10-28T09:44:43.446Z,19.83
2022-10-28T09:49:47.465Z,20.39
2022-10-28T09:54:52.233Z,20.74
2022-10-28T09:59:54.037Z,20.62
2022-10-28T10:04:57.965Z,20.75
2022-10-28T10:15:28.852Z,23.63
2022-10-28T10:20:47.483Z,24.74
2022-10-28T10:25:55.390Z,24.31
2022-10-28T10:30:59.824Z,24.13
2022-10-28T10:36:10.577Z,24.15
2022-10-28T10:41:12.084Z,24.27
2022-10-28T10:46:22.907Z,24.32
2022-10-28T10:51:27.379Z,25.40
2022-10-28T10:56:32.933Z,26.59
2022-10-28T11:01:39.129Z,26.42
2022-10-28T11:06:43.654Z,26.19
2022-10-28T11:11:45.324Z,26.62
2022-10-28T11:16:57.837Z,26.79
2022-10-28T11:22:47.913Z,26.85
2022-10-28T11:28:19.571Z,26.73
2022-10-28T11:33:30.483Z,26.12
2022-10-28T11:38:32.397Z,25.81
2022-10-28T11:43:55.019Z,25.57
2022-10-28T11:49:25.586Z,25.43
2022-10-28T11:54:54.048Z,25.53
2022-10-28T12:00:14.888Z,25.44
2022-10-28T12:05:33.040Z,25.34
2022-10-28T12:10:34.491Z,25.12
2022-10-28T12:15:58.183Z,25.01
2022-10-28T12:21:05.923Z,24.75
2022-10-28T12:26:11.525Z,24.55
2022-10-28T12:31:25.443Z,24.18
2022-10-28T12:36:29.792Z,23.85
2022-10-28T12:47:06.852Z,23.59
2022-10-28T12:52:19.870Z,23.53
2022-10-28T12:57:24.961Z,23.54
2022-10-28T13:02:39.748Z,23.71
2022-10-28T13:07:58.640Z,23.93
2022-10-28T13:13:22.017Z,24.04
2022-10-28T13:18:40.853Z,23.95
2022-10-28T13:24:21.092Z,23.81
2022-10-28T13:29:26.981Z,23.81
2022-10-28T13:34:36.013Z,23.82
2022-10-28T13:39:37.442Z,23.73
2022-10-28T13:44:55.707Z,23.61
2022-10-28T13:50:06.641Z,23.53
2022-10-28T13:55:13.981Z,23.52
2022-10-28T14:00:18.519Z,23.52
2022-10-28T14:05:25.634Z,23.55
2022-10-28T14:10:32.708Z,23.54
2022-10-28T14:15:37.192Z,23.55
2022-10-28T14:20:43.023Z,23.56
2022-10-28T14:25:44.587Z,23.61
2022-10-28T14:31:09.077Z,23.59
2022-10-28T14:36:19.615Z,23.59
2022-10-28T14:41:47.731Z,23.56
2022-10-28T14:47:26.784Z,23.58
2022-10-28T14:52:31.323Z,23.59
2022-10-28T14:57:34.572Z,23.51
2022-10-28T15:02:38.019Z,23.38
2022-10-28T15:07:41.165Z,23.26
2022-10-28T15:12:45.623Z,23.18
2022-10-28T15:17:47.125Z,23.04
2022-10-28T15:22:48.707Z,22.81
2022-10-28T15:27:54.108Z,22.64
2022-10-28T15:33:20.177Z,22.57
2022-10-28T15:38:30.978Z,22.42
2022-10-28T15:43:32.586Z,22.20
2022-10-28T15:48:34.132Z,21.93
2022-10-28T15:53:40.563Z,21.65
2022-10-28T15:58:44.102Z,21.40
2022-10-28T16:03:47.456Z,21.18
2022-10-28T16:08:59.673Z,20.96
2022-10-28T16:14:14.920Z,20.69
2022-10-28T16:19:41.233Z,20.39
2022-10-28T16:24:42.738Z,20.14
2022-10-28T16:29:44.559Z,19.98
2022-10-28T16:34:46.105Z,19.76
2022-10-28T16:39:48.421Z,19.53
2022-10-28T16:44:50.274Z,19.33
2022-10-28T16:49:54.513Z,19.20
2022-10-28T16:54:59.767Z,19.08
2022-10-28T17:00:01.846Z,18.96
2022-10-28T17:05:07.430Z,18.81
2022-10-28T17:10:09.935Z,18.72
2022-10-28T17:15:11.421Z,18.66
2022-10-28T17:20:12.923Z,18.61
2022-10-28T17:25:14.720Z,18.54
2022-10-28T17:30:17.585Z,18.45
2022-10-28T17:35:20.943Z,18.25
2022-10-28T17:40:22.502Z,18.15
2022-10-28T17:45:24.017Z,18.07
2022-10-28T17:50:25.528Z,18.00
2022-10-28T17:55:27.032Z,17.85
2022-10-28T18:00:28.489Z,17.69
2022-10-28T18:05:29.956Z,17.50
2022-10-28T18:10:31.431Z,17.33
2022-10-28T18:15:36.763Z,17.17
2022-10-28T18:20:38.358Z,17.06
2022-10-28T18:25:39.879Z,17.04
2022-10-28T18:30:41.346Z,16.98
2022-10-28T18:35:42.834Z,16.90
2022-10-28T18:40:47.214Z,16.86
2022-10-28T18:45:48.787Z,16.84
2022-10-28T18:51:01.873Z,16.81
2022-10-28T18:56:06.193Z,16.78
2022-10-28T19:01:20.157Z,16.77
2022-10-28T19:06:22.553Z,16.76
2022-10-28T19:11:29.887Z,16.73
2022-10-28T19:16:33.537Z,16.67
2022-10-28T19:21:38.350Z,16.56
2022-10-28T19:26:39.844Z,16.51
2022-10-28T19:31:41.939Z,16.48
2022-10-28T19:36:43.533Z,16.46
2022-10-28T19:41:45.142Z,16.45
2022-10-28T19:46:46.616Z,16.42
2022-10-28T19:51:48.052Z,16.39
2022-10-28T19:56:50.394Z,16.36
2022-10-28T20:01:52.003Z,16.33
2022-10-28T20:06:53.585Z,16.30
2022-10-28T20:11:55.228Z,16.25
2022-10-28T20:16:56.704Z,16.20
2022-10-28T20:21:58.312Z,16.13
2022-10-28T20:26:59.755Z,16.06
2022-10-28T20:32:01.895Z,15.95
2022-10-28T20:37:03.484Z,15.73
2022-10-28T20:42:04.997Z,15.49
2022-10-28T20:47:06.557Z,15.37
2022-10-28T20:52:08.091Z,15.31
2022-10-28T20:57:09.533Z,15.29
2022-10-28T21:02:11.161Z,15.28
2022-10-28T21:07:12.769Z,15.30
2022-10-28T21:12:14.214Z,15.31
2022-10-28T21:17:15.683Z,15.33
2022-10-28T21:22:18.522Z,15.28
2022-10-28T21:27:19.992Z,15.23
2022-10-28T21:32:21.459Z,15.07
2022-10-28T21:37:22.960Z,14.93
2022-10-28T21:42:24.483Z,14.88
2022-10-28T21:47:27.401Z,14.86
2022-10-28T21:52:28.856Z,14.80
2022-10-28T21:57:30.755Z,14.73
2022-10-28T22:02:32.375Z,14.69
2022-10-28T22:07:34.020Z,14.67
2022-10-28T22:12:35.470Z,14.62
2022-10-28T22:17:37.260Z,14.58
2022-10-28T22:22:38.738Z,14.51
2022-10-28T22:27:40.285Z,14.40
2022-10-28T22:32:41.750Z,14.34
2022-10-28T22:37:43.215Z,14.31
2022-10-28T22:42:44.662Z,14.26
2022-10-28T22:47:46.125Z,14.24
2022-10-28T22:52:47.570Z,14.22
2022-10-28T22:57:49.005Z,14.21
2022-10-28T23:02:50.521Z,14.17
2022-10-28T23:07:55.457Z,14.13
2022-10-28T23:12:58.492Z,14.12
2022-10-28T23:18:00.022Z,14.09
2022-10-28T23:23:01.771Z,14.01
2022-10-28T23:28:06.809Z,13.92
2022-10-28T23:33:08.277Z,13.83
2022-10-28T23:38:11.770Z,13.81
2022-10-28T23:43:13.194Z,13.81
2022-10-28T23:48:14.646Z,13.77
2022-10-28T23:53:16.612Z,13.69
2022-10-28T23:58:20.161Z,13.72
